createdAt,value
2019-05-23T00:00:45.810Z,987.1
2019-05-23T00:05:45.792Z,987.1
2019-05-23T00:10:45.831Z,987.1
2019-05-23T00:15:45.794Z,987.1
2019-05-23T00:20:45.825Z,987
2019-05-23T00:25:45.815Z,987
2019-05-23T00:30:45.801Z,987
2019-05-23T00:35:51.972Z,986.9
2019-05-23T00:40:51.717Z,986.9
2019-05-23T00:45:51.676Z,986.9
2019-05-23T00:50:51.715Z,986.9
2019-05-23T00:55:51.712Z,986.8
2019-05-23T01:00:52.809Z,986.8
2019-05-23T01:05:51.669Z,986.8
2019-05-23T01:10:51.708Z,986.8
2019-05-23T01:15:51.659Z,986.8
2019-05-23T01:20:51.715Z,986.8
2019-05-23T01:25:51.708Z,986.8
2019-05-23T01:31:02.321Z,986.8
2019-05-23T01:35:56.432Z,986.8
2019-05-23T01:40:56.483Z,986.8
2019-05-23T01:45:57.618Z,986.8
2019-05-23T01:50:56.430Z,986.9
2019-05-23T01:55:56.427Z,986.9
2019-05-23T02:00:56.421Z,986.9
2019-05-23T02:05:56.430Z,986.9
2019-05-23T02:10:56.415Z,986.9
2019-05-23T02:15:56.424Z,986.9
2019-05-23T02:20:56.429Z,986.9
2019-05-23T02:25:59.172Z,986.9
2019-05-23T02:30:59.325Z,986.9
2019-05-23T02:35:59.287Z,986.9
2019-05-23T02:40:59.354Z,986.9
2019-05-23T02:45:59.285Z,986.9
2019-05-23T02:50:59.295Z,986.9
2019-05-23T02:55:59.309Z,987
2019-05-23T03:00:59.307Z,987
2019-05-23T03:05:59.302Z,987
2019-05-23T03:10:59.248Z,987
2019-05-23T03:15:59.284Z,987.1
2019-05-23T03:20:59.272Z,987
2019-05-23T03:25:59.377Z,987
2019-05-23T03:31:24.981Z,987.1
2019-05-23T03:35:59.233Z,987.1
2019-05-23T03:40:59.237Z,987.1
2019-05-23T03:45:59.271Z,987.1
2019-05-23T03:50:59.270Z,987.1
2019-05-23T03:55:59.209Z,987.1
2019-05-23T04:00:59.211Z,987.2
2019-05-23T04:05:59.239Z,987.3
2019-05-23T04:10:59.209Z,987.3
2019-05-23T04:15:59.242Z,987.2
2019-05-23T04:20:59.181Z,987.2
2019-05-23T04:25:59.192Z,987.2
2019-05-23T04:30:59.394Z,987.2
2019-05-23T04:35:59.231Z,987.4
2019-05-23T04:40:59.217Z,987.4
2019-05-23T04:45:59.177Z,987.4
2019-05-23T04:51:00.315Z,987.4
2019-05-23T04:55:59.199Z,987.3
2019-05-23T05:00:59.194Z,987.3
2019-05-23T05:05:59.188Z,987.3
2019-05-23T05:10:59.174Z,987.2
2019-05-23T05:15:59.167Z,987.3
2019-05-23T05:20:59.162Z,987.4
2019-05-23T05:25:59.211Z,987.4
2019-05-23T05:30:59.176Z,987.4
2019-05-23T05:35:59.160Z,987.4
2019-05-23T05:40:59.213Z,987.4
2019-05-23T05:46:00.384Z,987.5
2019-05-23T05:50:59.157Z,987.5
2019-05-23T05:55:59.186Z,987.5
2019-05-23T06:00:59.204Z,987.5
2019-05-23T06:05:59.126Z,987.5
2019-05-23T06:10:59.117Z,987.5
2019-05-23T06:15:59.112Z,987.5
2019-05-23T06:20:59.130Z,987.5
2019-05-23T06:25:59.107Z,987.4
2019-05-23T06:30:59.158Z,987.4
2019-05-23T06:35:59.138Z,987.5
2019-05-23T06:40:59.081Z,987.4
2019-05-23T06:45:59.161Z,987.4
2019-05-23T06:50:59.068Z,987.4
2019-05-23T06:55:59.123Z,987.3
2019-05-23T07:00:59.174Z,987.4
2019-05-23T07:05:59.098Z,987.4
2019-05-23T07:10:59.386Z,987.4
2019-05-23T07:15:59.095Z,987.4
2019-05-23T07:20:59.114Z,987.4
2019-05-23T07:25:59.065Z,987.4
2019-05-23T07:30:59.073Z,987.4
2019-05-23T07:35:59.050Z,987.5
2019-05-23T07:40:59.047Z,987.5
2019-05-23T07:45:59.055Z,987.5
2019-05-23T07:50:59.085Z,987.5
2019-05-23T07:55:59.059Z,987.5
2019-05-23T08:00:59.102Z,987.5
2019-05-23T08:05:59.421Z,987.5
2019-05-23T08:10:59.064Z,987.4
2019-05-23T08:15:59.052Z,987.4
2019-05-23T08:20:59.011Z,987.4
2019-05-23T08:25:59.039Z,987.5
2019-05-23T08:30:59.007Z,987.5
2019-05-23T08:35:58.994Z,987.6
2019-05-23T08:40:59.047Z,987.5
2019-05-23T08:45:59.057Z,987.5
2019-05-23T08:50:59.002Z,987.5
2019-05-23T08:55:58.976Z,987.5
2019-05-23T09:00:59.003Z,987.6
2019-05-23T09:05:59.004Z,987.5
2019-05-23T09:10:58.988Z,987.5
2019-05-23T09:15:59.034Z,987.5
2019-05-23T09:20:58.981Z,987.5
2019-05-23T09:25:58.986Z,987.8
2019-05-23T09:30:59.005Z,987.6
2019-05-23T09:35:59.004Z,987.5
2019-05-23T09:40:58.972Z,987.5
2019-05-23T09:45:58.980Z,987.5
2019-05-23T09:50:59.001Z,987.5
2019-05-23T09:55:58.936Z,987.5
2019-05-23T10:00:59.015Z,987.5
2019-05-23T10:05:59.066Z,987.5
2019-05-23T10:10:58.952Z,987.9
2019-05-23T10:15:58.941Z,987.8
2019-05-23T10:20:58.949Z,987.8
2019-05-23T10:25:59.019Z,987.9
2019-05-23T10:30:58.952Z,987.8
2019-05-23T10:36:01.078Z,987.8
2019-05-23T10:40:58.924Z,987.8
2019-05-23T10:45:58.934Z,987.5
2019-05-23T10:50:58.961Z,987.2
2019-05-23T10:55:58.904Z,987.3
2019-05-23T11:00:58.908Z,987.4
2019-05-23T11:06:13.247Z,987.3
2019-05-23T11:10:58.945Z,987.4
2019-05-23T11:15:58.890Z,987.2
2019-05-23T11:20:58.930Z,987.2
2019-05-23T11:26:01.285Z,987.5
2019-05-23T11:30:58.934Z,987.2
2019-05-23T11:35:58.903Z,987.4
2019-05-23T11:41:00.018Z,987.4
2019-05-23T11:45:58.873Z,987.2
2019-05-23T11:50:58.852Z,987.1
2019-05-23T11:55:58.880Z,987.1
2019-05-23T12:00:58.909Z,987
2019-05-23T12:05:58.897Z,987
2019-05-23T12:10:58.876Z,987.1
2019-05-23T12:15:58.861Z,987.2
2019-05-23T12:20:59.658Z,987.3
2019-05-23T12:25:58.871Z,987.2
2019-05-23T12:31:02.924Z,987.2
2019-05-23T12:35:58.827Z,987.2
2019-05-23T12:40:58.842Z,987.2
2019-05-23T12:45:58.861Z,987.1
2019-05-23T12:50:58.860Z,986.9
2019-05-23T12:55:58.892Z,987.1
2019-05-23T13:00:58.848Z,986.9
2019-05-23T13:05:58.857Z,987.1
2019-05-23T13:10:58.858Z,987
2019-05-23T13:15:58.882Z,987
2019-05-23T13:20:59.720Z,987
2019-05-23T13:25:58.806Z,986.9
2019-05-23T13:30:58.823Z,986.9
2019-05-23T13:35:58.829Z,987
2019-05-23T13:40:58.808Z,986.9
2019-05-23T13:45:59.013Z,987
2019-05-23T13:50:58.827Z,987
2019-05-23T13:55:58.824Z,987
2019-05-23T14:00:58.842Z,987
2019-05-23T14:05:58.760Z,987.1
2019-05-23T14:10:58.783Z,987
2019-05-23T14:15:58.859Z,987
2019-05-23T14:20:58.763Z,987
2019-05-23T14:25:58.783Z,987
2019-05-23T14:30:58.757Z,987.1
2019-05-23T14:35:58.763Z,987.1
2019-05-23T14:40:58.761Z,987.1
2019-05-23T14:45:58.843Z,987.1
2019-05-23T14:50:58.759Z,987.1
2019-05-23T14:55:58.745Z,987.1
2019-05-23T15:00:58.754Z,987.1
2019-05-23T15:05:58.761Z,987.1
2019-05-23T15:10:58.722Z,987.2
2019-05-23T15:15:58.844Z,987.2
2019-05-23T15:20:58.861Z,987.1
2019-05-23T15:25:58.719Z,987.1
2019-05-23T15:30:58.880Z,987.1
2019-05-23T15:35:59.944Z,987.1
2019-05-23T15:40:58.762Z,987.2
2019-05-23T15:45:58.725Z,987.2
2019-05-23T15:50:58.693Z,987.2
2019-05-23T15:55:58.706Z,987.2
2019-05-23T16:00:58.687Z,987.2
2019-05-23T16:05:58.849Z,987.2
2019-05-23T16:10:58.694Z,987.1
2019-05-23T16:15:58.695Z,987.2
2019-05-23T16:20:58.733Z,987.2
2019-05-23T16:26:03.340Z,987.2
2019-05-23T16:30:58.691Z,987.7
2019-05-23T16:35:58.692Z,987.7
2019-05-23T16:40:58.658Z,987.6
2019-05-23T16:45:58.656Z,987.4
2019-05-23T16:50:58.677Z,987.4
2019-05-23T17:01:23.267Z,987.5
2019-05-23T17:06:10.898Z,987.5
2019-05-23T17:11:11.106Z,987.5
2019-05-23T17:16:11.123Z,987.6
2019-05-23T17:21:10.852Z,987.6
2019-05-23T17:26:10.821Z,987.6
2019-05-23T17:31:10.860Z,987.6
2019-05-23T17:36:10.855Z,987.5
2019-05-23T17:41:10.822Z,987.5
2019-05-23T17:46:10.825Z,987.5
2019-05-23T17:51:10.842Z,987.6
2019-05-23T17:56:10.820Z,987.6
2019-05-23T18:01:10.809Z,987.7
2019-05-23T18:06:10.799Z,987.8
2019-05-23T18:11:10.776Z,987.8
2019-05-23T18:16:10.837Z,987.8
2019-05-23T18:21:10.759Z,987.9
2019-05-23T18:26:10.769Z,988
2019-05-23T18:31:11.936Z,988
2019-05-23T18:36:10.759Z,988
2019-05-23T18:41:10.761Z,988.1
2019-05-23T18:46:10.768Z,988.1
2019-05-23T18:51:10.788Z,988.1
2019-05-23T18:56:10.812Z,988.1
2019-05-23T19:01:10.738Z,988.1
2019-05-23T19:06:10.759Z,988.1
2019-05-23T19:11:19.877Z,988.2
2019-05-23T19:16:10.725Z,988.2
2019-05-23T19:21:10.717Z,988.2
2019-05-23T19:26:10.720Z,988.2
2019-05-23T19:31:11.841Z,988.2
2019-05-23T19:42:55.403Z,988.3
2019-05-23T19:54:28.515Z,988.3
2019-05-23T19:59:28.461Z,988.3
2019-05-23T20:04:31.045Z,988.3
2019-05-23T20:09:28.487Z,988.4
2019-05-23T20:14:28.503Z,988.3
2019-05-23T20:19:28.463Z,988.3
2019-05-23T20:24:28.453Z,988.2
2019-05-23T20:29:28.672Z,988.2
2019-05-23T20:34:28.433Z,988.1
2019-05-23T20:39:28.503Z,988.2
2019-05-23T20:44:28.483Z,988.2
2019-05-23T20:57:12.165Z,988.2
2019-05-23T21:02:12.414Z,988.2
2019-05-23T21:07:12.337Z,988.2
2019-05-23T21:12:26.997Z,988.2
2019-05-23T21:17:12.330Z,988.2
2019-05-23T21:27:17.122Z,988.3
2019-05-23T21:32:17.129Z,988.2
2019-05-23T21:37:18.960Z,988.2
2019-05-23T21:42:17.113Z,988.2
2019-05-23T21:47:17.077Z,988.3
2019-05-23T21:52:17.103Z,988.2
2019-05-23T21:57:17.107Z,988.2
2019-05-23T22:02:17.095Z,988.2
2019-05-23T22:07:17.104Z,988.2
2019-05-23T22:12:17.292Z,988.2
2019-05-23T22:17:17.136Z,988.2
2019-05-23T22:22:17.062Z,988.2
2019-05-23T22:27:17.096Z,988.2
2019-05-23T22:32:17.076Z,988.2
2019-05-23T22:37:17.063Z,988.1
2019-05-23T22:42:17.077Z,988.1
2019-05-23T22:47:17.044Z,988.1
2019-05-23T22:52:17.039Z,988
2019-05-23T22:57:17.045Z,988
2019-05-23T23:02:17.059Z,988.1
2019-05-23T23:07:17.035Z,988
2019-05-23T23:12:17.012Z,988
2019-05-23T23:17:17.083Z,988
2019-05-23T23:22:17.073Z,987.9
2019-05-23T23:27:17.024Z,987.9
2019-05-23T23:32:16.997Z,987.9
2019-05-23T23:37:17.027Z,987.8
2019-05-23T23:42:16.987Z,987.9
2019-05-23T23:47:17.015Z,987.8
2019-05-23T23:52:16.997Z,987.9
2019-05-23T23:57:16.973Z,988
